createdAt,value
2018-04-23T00:00:39.347Z,1007.46
2018-04-23T00:01:39.783Z,1007.44
2018-04-23T00:02:40.222Z,1007.42
2018-04-23T00:03:40.669Z,1007.47
2018-04-23T00:04:41.100Z,1007.43
2018-04-23T00:05:41.539Z,1007.41
2018-04-23T00:06:41.972Z,1007.40
2018-04-23T00:07:42.415Z,1007.37
2018-04-23T00:08:42.848Z,1007.36
2018-04-23T00:09:43.293Z,1007.29
2018-04-23T00:10:43.728Z,1007.27
2018-04-23T00:11:44.164Z,1007.32
2018-04-23T00:12:44.603Z,1007.30
2018-04-23T00:13:45.046Z,1007.31
2018-04-23T00:14:45.478Z,1007.27
2018-04-23T00:15:45.914Z,1007.31
2018-04-23T00:16:46.359Z,1007.33
2018-04-23T00:17:46.793Z,1007.30
2018-04-23T00:18:47.349Z,1007.25
2018-04-23T00:19:47.672Z,1007.25
2018-04-23T00:20:48.109Z,1007.21
2018-04-23T00:21:48.556Z,1007.19
2018-04-23T00:22:48.985Z,1007.18
2018-04-23T00:23:49.423Z,1007.16
2018-04-23T00:24:49.867Z,1007.09
2018-04-23T00:25:50.296Z,1007.04
2018-04-23T00:26:50.740Z,1007.01
2018-04-23T00:27:51.176Z,1007.06
2018-04-23T00:28:51.615Z,1007.02
2018-04-23T00:29:52.051Z,1007.06
2018-04-23T00:30:52.492Z,1007.08
2018-04-23T00:31:52.933Z,1007.02
2018-04-23T00:32:53.367Z,1006.99
2018-04-23T00:33:53.807Z,1006.96
2018-04-23T00:34:54.250Z,1006.93
2018-04-23T00:35:54.689Z,1006.90
2018-04-23T00:36:55.120Z,1006.87
2018-04-23T00:37:55.566Z,1006.86
2018-04-23T00:38:55.992Z,1006.87
2018-04-23T00:39:56.452Z,1006.84
2018-04-23T00:40:56.982Z,1006.83
2018-04-23T00:41:57.315Z,1006.86
2018-04-23T00:42:57.751Z,1006.82
2018-04-23T00:43:58.187Z,1006.81
2018-04-23T00:44:58.626Z,1006.79
2018-04-23T00:45:59.081Z,1006.84
2018-04-23T00:46:59.504Z,1006.88
2018-04-23T00:47:59.949Z,1006.78
2018-04-23T00:49:00.377Z,1006.79
2018-04-23T00:50:00.911Z,1006.76
2018-04-23T00:51:01.254Z,1006.72
2018-04-23T00:52:01.759Z,1006.72
2018-04-23T00:53:02.134Z,1006.71
2018-04-23T00:54:02.570Z,1006.71
2018-04-23T00:55:03.017Z,1006.67
2018-04-23T00:56:03.448Z,1006.68
2018-04-23T00:57:03.884Z,1006.68
2018-04-23T00:58:04.328Z,1006.62
2018-04-23T00:59:04.769Z,1006.62
2018-04-23T01:00:05.208Z,1006.65
2018-04-23T01:01:05.638Z,1006.63
2018-04-23T01:02:06.078Z,1006.60
2018-04-23T01:03:06.512Z,1006.59
2018-04-23T01:04:06.953Z,1006.59
2018-04-23T01:05:07.392Z,1006.61
2018-04-23T01:06:07.825Z,1006.59
2018-04-23T01:07:08.266Z,1006.57
2018-04-23T01:08:08.798Z,1006.54
2018-04-23T01:09:09.135Z,1006.53
2018-04-23T01:10:09.575Z,1006.55
2018-04-23T01:11:10.014Z,1006.55
2018-04-23T01:12:10.453Z,1006.55
2018-04-23T01:13:10.886Z,1006.57
2018-04-23T01:14:11.326Z,1006.54
2018-04-23T01:15:11.763Z,1006.50
2018-04-23T01:16:12.200Z,1006.50
2018-04-23T01:17:12.638Z,1006.45
2018-04-23T01:18:13.076Z,1006.46
2018-04-23T01:19:13.513Z,1006.41
2018-04-23T01:20:13.950Z,1006.38
2018-04-23T01:21:14.385Z,1006.36
2018-04-23T01:22:14.965Z,1006.33
2018-04-23T01:23:15.263Z,1006.31
2018-04-23T01:24:15.708Z,1006.34
2018-04-23T01:25:16.134Z,1006.38
2018-04-23T01:26:16.569Z,1006.43
2018-04-23T01:27:17.013Z,1006.45
2018-04-23T01:28:17.447Z,1006.51
2018-04-23T01:29:17.886Z,1006.50
2018-04-23T01:30:18.326Z,1006.46
2018-04-23T01:31:18.756Z,1006.43
2018-04-23T01:32:19.199Z,1006.47
2018-04-23T01:33:19.637Z,1006.42
2018-04-23T01:34:20.073Z,1006.42
2018-04-23T01:35:20.537Z,1006.40
2018-04-23T01:36:20.954Z,1006.41
2018-04-23T01:37:21.380Z,1006.39
2018-04-23T01:38:21.816Z,1006.40
2018-04-23T01:39:22.254Z,1006.44
2018-04-23T01:40:22.852Z,1006.39
2018-04-23T01:41:23.133Z,1006.42
2018-04-23T01:42:23.570Z,1006.38
2018-04-23T01:43:24.005Z,1006.39
2018-04-23T01:44:24.439Z,1006.39
2018-04-23T01:45:24.892Z,1006.47
2018-04-23T01:46:25.314Z,1006.50
2018-04-23T01:47:25.751Z,1006.49
2018-04-23T01:48:26.190Z,1006.49
2018-04-23T01:49:26.627Z,1006.50
2018-04-23T01:50:27.062Z,1006.53
2018-04-23T01:51:27.506Z,1006.51
2018-04-23T01:52:27.936Z,1006.48
2018-04-23T01:53:28.376Z,1006.54
2018-04-23T01:54:28.808Z,1006.51
2018-04-23T01:55:29.246Z,1006.51
2018-04-23T01:56:29.681Z,1006.49
2018-04-23T01:57:30.120Z,1006.50
2018-04-23T01:58:30.561Z,1006.46
2018-04-23T01:59:31.000Z,1006.43
2018-04-23T02:00:31.467Z,1006.39
2018-04-23T02:01:31.879Z,1006.38
2018-04-23T02:02:32.308Z,1006.43
2018-04-23T02:03:32.744Z,1006.40
2018-04-23T02:04:33.176Z,1006.41
2018-04-23T02:05:33.617Z,1006.43
2018-04-23T02:06:34.064Z,1006.44
2018-04-23T02:07:34.488Z,1006.43
2018-04-23T02:08:34.930Z,1006.44
2018-04-23T02:09:35.357Z,1006.49
2018-04-23T02:10:35.793Z,1006.46
2018-04-23T02:11:36.236Z,1006.50
2018-04-23T02:12:36.672Z,1006.51
2018-04-23T02:13:37.121Z,1006.49
2018-04-23T02:14:37.542Z,1006.49
2018-04-23T02:15:38.095Z,1006.48
2018-04-23T02:16:38.423Z,1006.47
2018-04-23T02:17:38.853Z,1006.45
2018-04-23T02:18:39.293Z,1006.46
2018-04-23T02:19:39.726Z,1006.46
2018-04-23T02:20:40.163Z,1006.47
2018-04-23T02:21:40.604Z,1006.45
2018-04-23T02:22:41.038Z,1006.46
2018-04-23T02:23:41.474Z,1006.45
2018-04-23T02:24:41.909Z,1006.40
2018-04-23T02:25:42.349Z,1006.40
2018-04-23T02:26:42.794Z,1006.39
2018-04-23T02:27:43.219Z,1006.41
2018-04-23T02:28:43.668Z,1006.42
2018-04-23T02:29:44.093Z,1006.44
2018-04-23T02:30:44.529Z,1006.47
2018-04-23T02:31:44.970Z,1006.47
2018-04-23T02:32:45.404Z,1006.53
2018-04-23T02:33:45.843Z,1006.52
2018-04-23T02:34:46.273Z,1006.53
2018-04-23T02:35:46.722Z,1006.51
2018-04-23T02:36:47.159Z,1006.48
2018-04-23T02:37:47.585Z,1006.49
2018-04-23T02:38:48.027Z,1006.50
2018-04-23T02:39:48.460Z,1006.54
2018-04-23T02:40:48.897Z,1006.52
2018-04-23T02:41:49.344Z,1006.54
2018-04-23T02:42:49.770Z,1006.51
2018-04-23T02:43:50.213Z,1006.49
2018-04-23T02:44:50.649Z,1006.52
2018-04-23T02:45:51.086Z,1006.50
2018-04-23T02:46:51.528Z,1006.47
2018-04-23T02:47:51.957Z,1006.48
2018-04-23T02:48:52.394Z,1006.45
2018-04-23T02:49:52.837Z,1006.49
2018-04-23T02:50:53.380Z,1006.48
2018-04-23T02:51:53.702Z,1006.46
2018-04-23T02:52:54.140Z,1006.46
2018-04-23T02:53:54.579Z,1006.45
2018-04-23T02:54:55.010Z,1006.47
2018-04-23T02:55:55.446Z,1006.47
2018-04-23T02:56:55.896Z,1006.48
2018-04-23T02:57:56.320Z,1006.49
2018-04-23T02:58:56.760Z,1006.49
2018-04-23T02:59:57.197Z,1006.43
2018-04-23T03:00:57.629Z,1006.46
2018-04-23T03:01:58.067Z,1006.47
2018-04-23T03:02:58.514Z,1006.47
2018-04-23T03:03:58.948Z,1006.47
2018-04-23T03:04:59.375Z,1006.50
2018-04-23T03:05:59.831Z,1006.47
2018-04-23T03:07:00.249Z,1006.44
2018-04-23T03:08:00.688Z,1006.50
2018-04-23T03:09:01.117Z,1006.51
2018-04-23T03:10:01.561Z,1006.58
2018-04-23T03:11:01.999Z,1006.54
2018-04-23T03:12:02.438Z,1006.54
2018-04-23T03:13:02.866Z,1006.53
2018-04-23T03:14:03.315Z,1006.56
2018-04-23T03:15:03.743Z,1006.56
2018-04-23T03:16:04.183Z,1006.55
2018-04-23T03:17:04.617Z,1006.62
2018-04-23T03:18:05.053Z,1006.61
2018-04-23T03:19:05.496Z,1006.61
2018-04-23T03:20:05.933Z,1006.65
2018-04-23T03:21:06.364Z,1006.64
2018-04-23T03:22:06.794Z,1006.61
2018-04-23T03:23:07.234Z,1006.62
2018-04-23T03:24:07.665Z,1006.61
2018-04-23T03:25:08.110Z,1006.60
2018-04-23T03:26:08.588Z,1006.57
2018-04-23T03:27:08.981Z,1006.62
2018-04-23T03:28:09.407Z,1006.62
2018-04-23T03:29:09.852Z,1006.61
2018-04-23T03:30:10.282Z,1006.61
2018-04-23T03:31:10.725Z,1006.60
2018-04-23T03:32:11.235Z,1006.63
2018-04-23T03:33:11.593Z,1006.61
2018-04-23T03:34:12.025Z,1006.66
2018-04-23T03:35:12.505Z,1006.67
2018-04-23T03:36:12.903Z,1006.63
2018-04-23T03:37:13.442Z,1006.66
2018-04-23T03:38:13.781Z,1006.67
2018-04-23T03:39:14.204Z,1006.66
2018-04-23T03:40:14.648Z,1006.64
2018-04-23T03:41:15.082Z,1006.64
2018-04-23T03:42:15.518Z,1006.63
2018-04-23T03:43:15.956Z,1006.61
2018-04-23T03:44:16.383Z,1006.62
2018-04-23T03:45:16.832Z,1006.63
2018-04-23T03:46:17.259Z,1006.65
2018-04-23T03:47:17.697Z,1006.67
2018-04-23T03:48:18.129Z,1006.68
2018-04-23T03:49:18.562Z,1006.70
2018-04-23T03:50:19.002Z,1006.71
2018-04-23T03:51:19.445Z,1006.74
2018-04-23T03:52:19.872Z,1006.72
2018-04-23T03:53:20.305Z,1006.73
2018-04-23T03:54:20.743Z,1006.74
2018-04-23T03:55:21.182Z,1006.72
2018-04-23T03:56:21.613Z,1006.77
2018-04-23T03:57:22.051Z,1006.80
2018-04-23T03:58:22.489Z,1006.81
2018-04-23T03:59:22.919Z,1006.83
2018-04-23T04:00:23.359Z,1006.82
2018-04-23T04:01:23.857Z,1006.84
2018-04-23T04:02:24.232Z,1006.79
2018-04-23T04:03:24.666Z,1006.87
2018-04-23T04:04:25.103Z,1006.82
2018-04-23T04:05:25.536Z,1006.84
2018-04-23T04:06:25.969Z,1006.87
2018-04-23T04:07:26.406Z,1006.91
2018-04-23T04:08:27.105Z,1006.92
2018-04-23T04:09:27.270Z,1006.93
2018-04-23T04:10:27.715Z,1006.89
2018-04-23T04:11:28.149Z,1006.92
2018-04-23T04:12:28.584Z,1006.91
2018-04-23T04:13:29.021Z,1006.88
2018-04-23T04:14:29.451Z,1006.89
2018-04-23T04:15:29.889Z,1006.89
2018-04-23T04:16:30.425Z,1006.90
2018-04-23T04:17:30.757Z,1006.89
2018-04-23T04:18:31.196Z,1006.93
2018-04-23T04:19:31.631Z,1006.93
2018-04-23T04:20:32.075Z,1006.92
2018-04-23T04:21:32.506Z,1006.92
2018-04-23T04:22:32.936Z,1006.94
2018-04-23T04:23:33.372Z,1006.97
2018-04-23T04:24:33.813Z,1006.97
2018-04-23T04:25:34.235Z,1006.98
2018-04-23T04:26:34.678Z,1007.02
2018-04-23T04:27:35.119Z,1007.06
2018-04-23T04:28:35.549Z,1007.10
2018-04-23T04:29:35.991Z,1007.09
2018-04-23T04:30:36.417Z,1007.11
2018-04-23T04:31:36.861Z,1007.10
2018-04-23T04:32:37.287Z,1007.19
2018-04-23T04:33:37.732Z,1007.16
2018-04-23T04:34:38.163Z,1007.19
2018-04-23T04:35:38.673Z,1007.21
2018-04-23T04:36:39.042Z,1007.23
2018-04-23T04:37:39.468Z,1007.24
2018-04-23T04:38:39.900Z,1007.24
2018-04-23T04:39:40.338Z,1007.23
2018-04-23T04:40:40.780Z,1007.24
2018-04-23T04:41:41.236Z,1007.22
2018-04-23T04:42:41.649Z,1007.23
2018-04-23T04:43:42.125Z,1007.19
2018-04-23T04:44:42.519Z,1007.21
2018-04-23T04:45:42.953Z,1007.21
2018-04-23T04:46:43.394Z,1007.23
2018-04-23T04:47:43.821Z,1007.23
2018-04-23T04:48:44.254Z,1007.23
2018-04-23T04:49:44.717Z,1007.23
2018-04-23T04:50:45.119Z,1007.25
2018-04-23T04:51:45.565Z,1007.28
2018-04-23T04:52:45.999Z,1007.28
2018-04-23T04:53:46.427Z,1007.28
2018-04-23T04:54:46.870Z,1007.27
2018-04-23T04:55:47.301Z,1007.21
2018-04-23T04:56:47.774Z,1007.19
2018-04-23T04:57:48.171Z,1007.24
2018-04-23T04:58:48.617Z,1007.30
2018-04-23T04:59:49.042Z,1007.28
2018-04-23T05:00:49.480Z,1007.33
2018-04-23T05:01:49.912Z,1007.33
2018-04-23T05:02:50.353Z,1007.32
2018-04-23T05:03:50.806Z,1007.31
2018-04-23T05:04:52.321Z,1007.25
2018-04-23T05:05:51.663Z,1007.26
2018-04-23T05:06:52.101Z,1007.29
2018-04-23T05:07:52.533Z,1007.31
2018-04-23T05:08:52.978Z,1007.33
2018-04-23T05:09:53.398Z,1007.29
2018-04-23T05:10:53.841Z,1007.31
2018-04-23T05:11:54.353Z,1007.28
2018-04-23T05:12:54.715Z,1007.26
2018-04-23T05:13:55.144Z,1007.25
2018-04-23T05:14:55.576Z,1007.23
2018-04-23T05:15:56.018Z,1007.17
2018-04-23T05:16:56.452Z,1007.17
2018-04-23T05:17:56.888Z,1007.19
2018-04-23T05:18:57.326Z,1007.22
2018-04-23T05:19:57.760Z,1007.21
2018-04-23T05:20:58.197Z,1007.25
2018-04-23T05:21:58.635Z,1007.26
2018-04-23T05:22:59.066Z,1007.32
2018-04-23T05:23:59.527Z,1007.29
2018-04-23T05:24:59.944Z,1007.35
2018-04-23T05:26:00.388Z,1007.34
2018-04-23T05:27:00.817Z,1007.34
2018-04-23T05:28:01.249Z,1007.39
2018-04-23T05:29:01.689Z,1007.43
2018-04-23T05:30:02.148Z,1007.39
2018-04-23T05:31:02.563Z,1007.42
2018-04-23T05:32:03.007Z,1007.41
2018-04-23T05:33:03.437Z,1007.42
2018-04-23T05:34:03.872Z,1007.44
2018-04-23T05:35:04.310Z,1007.45
2018-04-23T05:36:04.747Z,1007.43
2018-04-23T05:37:05.192Z,1007.45
2018-04-23T05:38:05.622Z,1007.47
2018-04-23T05:39:06.056Z,1007.46
2018-04-23T05:40:06.500Z,1007.47
2018-04-23T05:41:06.935Z,1007.46
2018-04-23T05:42:07.393Z,1007.42
2018-04-23T05:43:07.820Z,1007.37
2018-04-23T05:44:08.245Z,1007.43
2018-04-23T05:45:08.697Z,1007.39
2018-04-23T05:46:09.126Z,1007.38
2018-04-23T05:47:09.573Z,1007.43
2018-04-23T05:48:09.995Z,1007.46
2018-04-23T05:49:10.435Z,1007.50
2018-04-23T05:50:10.879Z,1007.46
2018-04-23T05:51:11.306Z,1007.49
2018-04-23T05:52:11.745Z,1007.51
2018-04-23T05:53:12.190Z,1007.53
2018-04-23T05:54:12.635Z,1007.52
2018-04-23T05:55:13.078Z,1007.52
2018-04-23T05:56:13.503Z,1007.51
2018-04-23T05:57:13.947Z,1007.53
2018-04-23T05:58:14.377Z,1007.52
2018-04-23T06:00:48.915Z,1007.53
2018-04-23T06:01:49.418Z,1007.49
2018-04-23T06:03:45.701Z,1007.51
2018-04-23T06:07:58.463Z,1007.51
2018-04-23T06:08:58.842Z,1007.61
2018-04-23T06:11:07.197Z,1007.51
2018-04-23T06:13:44.418Z,1007.52
2018-04-23T06:18:46.353Z,1007.80
2018-04-23T06:19:46.792Z,1007.80
2018-04-23T06:21:54.030Z,1007.68
2018-04-23T06:22:54.455Z,1007.64
2018-04-23T06:23:54.892Z,1007.62
2018-04-23T06:24:55.333Z,1007.67
2018-04-23T06:25:55.775Z,1007.67
2018-04-23T06:26:56.212Z,1007.74
2018-04-23T06:27:56.659Z,1007.72
2018-04-23T06:28:57.097Z,1007.78
2018-04-23T06:29:57.538Z,1007.75
2018-04-23T06:30:57.971Z,1007.80
2018-04-23T06:31:58.418Z,1007.85
2018-04-23T06:32:58.852Z,1007.82
2018-04-23T06:33:59.302Z,1007.76
2018-04-23T06:34:59.743Z,1007.74
2018-04-23T06:37:36.380Z,1007.74
2018-04-23T06:40:09.842Z,1007.76
2018-04-23T06:41:10.275Z,1007.72
2018-04-23T06:43:04.852Z,1007.72
2018-04-23T06:44:05.284Z,1007.77
2018-04-23T06:45:59.878Z,1007.61
2018-04-23T06:47:00.321Z,1007.64
2018-04-23T06:48:54.914Z,1007.54
2018-04-23T06:49:55.347Z,1007.60
2018-04-23T06:51:49.933Z,1007.57
2018-04-23T06:52:50.354Z,1007.56
2018-04-23T06:54:44.942Z,1007.61
2018-04-23T06:55:45.375Z,1007.61
2018-04-23T06:56:45.849Z,1007.56
2018-04-23T06:57:46.269Z,1007.56
2018-04-23T06:58:46.695Z,1007.58
2018-04-23T06:59:47.135Z,1007.54
2018-04-23T07:00:47.575Z,1007.51
2018-04-23T07:01:48.012Z,1007.42
2018-04-23T07:02:48.457Z,1007.43
2018-04-23T07:03:48.887Z,1007.39
2018-04-23T07:04:49.341Z,1007.39
2018-04-23T07:05:49.767Z,1007.38
2018-04-23T07:06:50.208Z,1007.37
2018-04-23T07:07:50.652Z,1007.31
2018-04-23T07:08:51.086Z,1007.24
2018-04-23T07:09:51.524Z,1007.30
2018-04-23T07:10:51.965Z,1007.32
2018-04-23T07:11:52.416Z,1007.31
2018-04-23T07:12:52.846Z,1007.37
2018-04-23T07:13:53.287Z,1007.36
2018-04-23T07:14:53.721Z,1007.44
2018-04-23T07:15:54.171Z,1007.52
2018-04-23T07:16:54.599Z,1007.55
2018-04-23T07:17:55.143Z,1007.53
2018-04-23T07:18:55.490Z,1007.45
2018-04-23T07:19:55.934Z,1007.40
2018-04-23T07:20:56.387Z,1007.39
2018-04-23T07:21:56.814Z,1007.40
2018-04-23T07:22:57.245Z,1007.32
2018-04-23T07:23:57.717Z,1007.31
2018-04-23T07:24:58.129Z,1007.16
2018-04-23T07:25:58.566Z,1007.11
2018-04-23T07:26:59.010Z,1007.01
2018-04-23T07:27:59.444Z,1007.00
2018-04-23T07:28:59.894Z,1006.97
2018-04-23T07:30:00.329Z,1006.94
2018-04-23T07:31:00.778Z,1006.92
2018-04-23T07:32:01.210Z,1006.84
2018-04-23T07:33:01.659Z,1006.86
2018-04-23T07:34:02.096Z,1006.86
2018-04-23T07:35:02.552Z,1006.89
2018-04-23T07:36:02.981Z,1006.88
2018-04-23T07:37:03.420Z,1006.90
2018-04-23T07:38:03.858Z,1006.84
2018-04-23T07:39:04.310Z,1006.85
2018-04-23T07:40:04.744Z,1006.88
2018-04-23T07:41:05.208Z,1006.87
2018-04-23T07:42:05.637Z,1006.85
2018-04-23T07:43:06.080Z,1006.89
2018-04-23T07:44:06.527Z,1006.82
2018-04-23T07:45:06.970Z,1006.84
2018-04-23T07:46:07.421Z,1006.89
2018-04-23T07:47:07.861Z,1006.88
2018-04-23T07:48:08.317Z,1006.90
2018-04-23T07:49:08.761Z,1006.94
2018-04-23T07:50:09.210Z,1006.89
2018-04-23T07:51:09.660Z,1006.91
2018-04-23T07:52:10.122Z,1006.95
2018-04-23T07:53:10.561Z,1006.99
2018-04-23T07:54:11.081Z,1007.01
2018-04-23T07:55:11.467Z,1007.04
2018-04-23T07:56:11.920Z,1007.07
2018-04-23T07:57:12.375Z,1007.10
2018-04-23T07:58:12.834Z,1007.08
2018-04-23T07:59:13.277Z,1007.10
2018-04-23T08:00:13.737Z,1007.10
2018-04-23T08:01:14.187Z,1007.11
2018-04-23T08:02:14.644Z,1007.07
2018-04-23T08:03:15.100Z,1007.09
2018-04-23T08:04:15.554Z,1007.04
2018-04-23T08:05:16.017Z,1007.06
2018-04-23T08:06:16.470Z,1007.05
2018-04-23T08:07:16.923Z,1007.06
2018-04-23T08:08:17.386Z,1007.02
2018-04-23T08:09:17.841Z,1007.00
2018-04-23T08:10:18.302Z,1007.02
2018-04-23T08:11:18.758Z,1007.08
2018-04-23T08:12:19.304Z,1007.02
2018-04-23T08:13:19.678Z,1007.05
2018-04-23T08:14:20.133Z,1007.05
2018-04-23T08:15:20.599Z,1007.03
2018-04-23T08:16:21.059Z,1007.05
2018-04-23T08:17:21.526Z,1007.07
2018-04-23T08:18:21.991Z,1007.04
2018-04-23T08:19:22.444Z,1007.11
2018-04-23T08:20:22.903Z,1007.11
2018-04-23T08:21:23.371Z,1007.16
2018-04-23T08:22:23.830Z,1007.13
2018-04-23T08:23:24.289Z,1007.16
2018-04-23T08:24:24.764Z,1007.14
2018-04-23T08:25:25.226Z,1007.14
2018-04-23T08:26:25.685Z,1007.15
2018-04-23T08:27:26.139Z,1007.22
2018-04-23T08:28:26.614Z,1007.23
2018-04-23T08:29:27.070Z,1007.25
2018-04-23T08:30:27.542Z,1007.27
2018-04-23T08:31:28.004Z,1007.31
2018-04-23T08:32:28.460Z,1007.28
2018-04-23T08:33:28.932Z,1007.30
2018-04-23T08:34:29.386Z,1007.34
2018-04-23T08:35:29.852Z,1007.33
2018-04-23T08:36:30.309Z,1007.40
2018-04-23T08:37:30.795Z,1007.43
2018-04-23T08:38:31.231Z,1007.33
2018-04-23T08:39:31.695Z,1007.40
2018-04-23T08:40:32.162Z,1007.40
2018-04-23T08:41:32.611Z,1007.42
2018-04-23T08:42:33.070Z,1007.43
2018-04-23T08:43:33.531Z,1007.45
2018-04-23T08:44:33.996Z,1007.51
2018-04-23T08:45:34.451Z,1007.46
2018-04-23T08:46:34.904Z,1007.50
2018-04-23T08:47:35.363Z,1007.52
2018-04-23T08:48:35.814Z,1007.58
2018-04-23T08:49:36.277Z,1007.51
2018-04-23T08:50:36.724Z,1007.56
2018-04-23T08:51:37.178Z,1007.56
2018-04-23T08:52:37.632Z,1007.57
2018-04-23T08:53:38.088Z,1007.62
2018-04-23T08:54:38.545Z,1007.61
2018-04-23T08:55:38.996Z,1007.65
2018-04-23T08:56:39.445Z,1007.68
2018-04-23T08:57:39.901Z,1007.64
2018-04-23T08:58:40.358Z,1007.61
2018-04-23T08:59:40.809Z,1007.59
2018-04-23T09:00:41.264Z,1007.65
2018-04-23T09:01:41.721Z,1007.60
2018-04-23T09:02:42.175Z,1007.62
2018-04-23T09:03:42.623Z,1007.58
2018-04-23T09:04:43.077Z,1007.57
2018-04-23T09:05:43.534Z,1007.61
2018-04-23T09:06:43.985Z,1007.65
2018-04-23T09:07:44.437Z,1007.60
2018-04-23T09:08:44.891Z,1007.71
2018-04-23T09:09:45.346Z,1007.66
2018-04-23T09:10:45.791Z,1007.65
2018-04-23T09:11:46.323Z,1007.62
2018-04-23T09:12:46.717Z,1007.67
2018-04-23T09:13:47.142Z,1007.63
2018-04-23T09:14:47.595Z,1007.63
2018-04-23T09:15:48.050Z,1007.67
2018-04-23T09:16:48.493Z,1007.66
2018-04-23T09:17:49.000Z,1007.69
2018-04-23T09:18:49.393Z,1007.68
2018-04-23T09:19:49.843Z,1007.69
2018-04-23T09:20:50.294Z,1007.73
2018-04-23T09:21:50.734Z,1007.76
2018-04-23T09:22:51.186Z,1007.81
2018-04-23T09:23:51.634Z,1007.87
2018-04-23T09:24:52.135Z,1007.94
2018-04-23T09:25:52.530Z,1007.82
2018-04-23T09:26:52.972Z,1007.88
2018-04-23T09:27:53.416Z,1007.88
2018-04-23T09:28:53.876Z,1007.89
2018-04-23T09:29:54.306Z,1007.98
2018-04-23T09:30:54.761Z,1008.01
2018-04-23T09:31:55.207Z,1007.92
2018-04-23T09:32:55.649Z,1007.97
2018-04-23T09:33:56.098Z,1008.00
2018-04-23T09:34:56.548Z,1007.98
2018-04-23T09:35:56.982Z,1007.99
2018-04-23T09:36:57.443Z,1007.98
2018-04-23T09:37:57.872Z,1007.96
2018-04-23T09:38:58.340Z,1007.89
2018-04-23T09:39:58.768Z,1008.02
2018-04-23T09:40:59.268Z,1008.01
2018-04-23T09:41:59.669Z,1007.87
2018-04-23T09:43:00.117Z,1007.96
2018-04-23T09:44:00.569Z,1007.93
2018-04-23T09:45:01.039Z,1008.04
2018-04-23T09:46:01.496Z,1008.00
2018-04-23T09:47:01.892Z,1008.06
2018-04-23T09:48:02.356Z,1007.98
2018-04-23T09:49:02.792Z,1008.11
2018-04-23T09:50:03.243Z,1008.06
2018-04-23T09:51:03.685Z,1008.11
2018-04-23T09:52:04.123Z,1008.01
2018-04-23T09:53:04.579Z,1008.04
2018-04-23T09:54:05.074Z,1008.05
2018-04-23T09:55:05.463Z,1008.16
2018-04-23T09:56:05.923Z,1008.14
2018-04-23T09:57:06.358Z,1008.13
2018-04-23T09:58:06.818Z,1008.22
2018-04-23T09:59:07.246Z,1008.27
2018-04-23T10:00:07.690Z,1008.20
2018-04-23T10:01:08.129Z,1008.23
2018-04-23T10:02:08.602Z,1008.17
2018-04-23T10:03:09.014Z,1008.25
2018-04-23T10:04:09.767Z,1008.23
2018-04-23T10:05:09.904Z,1008.23
2018-04-23T10:06:10.376Z,1008.23
2018-04-23T10:07:10.786Z,1008.25
2018-04-23T10:08:11.223Z,1008.20
2018-04-23T10:09:11.669Z,1008.18
2018-04-23T10:10:12.113Z,1008.27
2018-04-23T10:11:12.548Z,1008.28
2018-04-23T10:12:13.002Z,1008.23
2018-04-23T10:13:13.429Z,1008.29
2018-04-23T10:14:13.876Z,1008.27
2018-04-23T10:15:14.311Z,1008.24
2018-04-23T10:16:14.754Z,1008.21
2018-04-23T10:17:15.197Z,1008.29
2018-04-23T10:18:15.632Z,1008.28
2018-04-23T10:19:16.072Z,1008.30
2018-04-23T10:20:16.508Z,1008.32
2018-04-23T10:21:16.975Z,1008.30
2018-04-23T10:22:17.396Z,1008.24
2018-04-23T10:23:17.841Z,1008.23
2018-04-23T10:24:18.293Z,1008.18
2018-04-23T10:25:18.712Z,1008.14
2018-04-23T10:26:19.158Z,1008.22
2018-04-23T10:27:19.590Z,1008.17
2018-04-23T10:28:20.037Z,1008.15
2018-04-23T10:29:20.479Z,1008.14
2018-04-23T10:30:20.911Z,1008.12
2018-04-23T10:31:21.400Z,1008.11
2018-04-23T10:32:21.793Z,1008.10
2018-04-23T10:33:22.230Z,1007.99
2018-04-23T10:34:22.675Z,1008.02
2018-04-23T10:35:23.108Z,1008.05
2018-04-23T10:36:23.566Z,1007.97
2018-04-23T10:37:23.993Z,1008.03
2018-04-23T10:38:24.497Z,1008.00
2018-04-23T10:39:24.888Z,1008.07
2018-04-23T10:40:25.311Z,1008.08
2018-04-23T10:41:25.759Z,1008.12
2018-04-23T10:42:26.201Z,1008.15
2018-04-23T10:43:26.639Z,1008.10
2018-04-23T10:44:27.083Z,1008.15
2018-04-23T10:45:27.560Z,1008.08
2018-04-23T10:46:27.960Z,1008.02
2018-04-23T10:47:28.396Z,1007.95
2018-04-23T10:48:28.841Z,1007.98
2018-04-23T10:49:29.288Z,1007.98
2018-04-23T10:50:29.718Z,1007.91
2018-04-23T10:51:30.172Z,1007.98
2018-04-23T10:52:30.603Z,1007.94
2018-04-23T10:53:31.047Z,1007.92
2018-04-23T10:54:31.489Z,1007.93
2018-04-23T10:55:31.924Z,1007.90
2018-04-23T10:56:32.376Z,1007.93
2018-04-23T10:57:32.844Z,1007.89
2018-04-23T10:58:33.251Z,1007.91
2018-04-23T10:59:33.702Z,1007.85
2018-04-23T11:00:34.136Z,1007.87
2018-04-23T11:01:34.587Z,1007.87
2018-04-23T11:02:35.029Z,1007.81
2018-04-23T11:03:35.473Z,1007.82
2018-04-23T11:04:35.907Z,1007.75
2018-04-23T11:05:36.366Z,1007.65
2018-04-23T11:06:36.799Z,1007.69
2018-04-23T11:07:37.247Z,1007.63
2018-04-23T11:08:37.681Z,1007.64
2018-04-23T11:09:38.168Z,1007.60
2018-04-23T11:10:38.592Z,1007.66
2018-04-23T11:11:39.013Z,1007.69
2018-04-23T11:12:39.466Z,1007.71
2018-04-23T11:13:39.903Z,1007.69
2018-04-23T11:14:40.351Z,1007.67
2018-04-23T11:15:40.784Z,1007.65
2018-04-23T11:16:41.233Z,1007.66
2018-04-23T11:17:41.699Z,1007.67
2018-04-23T11:18:42.140Z,1007.65
2018-04-23T11:19:42.588Z,1007.73
2018-04-23T11:20:43.012Z,1007.65
2018-04-23T11:21:43.474Z,1007.70
2018-04-23T11:22:43.914Z,1007.71
2018-04-23T11:23:44.375Z,1007.74
2018-04-23T11:24:44.849Z,1007.74
2018-04-23T11:25:45.268Z,1007.75
2018-04-23T11:26:45.723Z,1007.72
2018-04-23T11:27:46.179Z,1007.73
2018-04-23T11:28:46.629Z,1007.67
2018-04-23T11:29:47.160Z,1007.69
2018-04-23T11:30:47.537Z,1007.68
2018-04-23T11:31:48.000Z,1007.65
2018-04-23T11:32:48.449Z,1007.70
2018-04-23T11:33:48.927Z,1007.70
2018-04-23T11:34:49.365Z,1007.66
2018-04-23T11:35:49.828Z,1007.65
2018-04-23T11:36:50.285Z,1007.65
2018-04-23T11:37:50.763Z,1007.68
2018-04-23T11:38:51.198Z,1007.74
2018-04-23T11:39:51.656Z,1007.76
2018-04-23T11:40:52.118Z,1007.71
2018-04-23T11:41:52.575Z,1007.75
2018-04-23T11:42:53.025Z,1007.80
2018-04-23T11:43:53.475Z,1007.80
2018-04-23T11:44:53.960Z,1007.63
2018-04-23T11:45:54.386Z,1007.76
2018-04-23T11:46:54.848Z,1007.75
2018-04-23T11:47:55.295Z,1007.68
2018-04-23T11:48:55.744Z,1007.73
2018-04-23T11:49:56.201Z,1007.69
2018-04-23T11:50:56.662Z,1007.70
2018-04-23T11:51:57.108Z,1007.71
2018-04-23T11:52:57.550Z,1007.67
2018-04-23T11:53:57.999Z,1007.74
2018-04-23T11:54:58.456Z,1007.75
2018-04-23T11:55:58.902Z,1007.71
2018-04-23T11:56:59.352Z,1007.66
2018-04-23T11:57:59.793Z,1007.76
2018-04-23T11:59:00.244Z,1007.73
2018-04-23T12:00:00.691Z,1007.70
2018-04-23T12:01:01.139Z,1007.78
2018-04-23T12:02:01.582Z,1007.74
2018-04-23T12:03:02.030Z,1007.71
2018-04-23T12:04:02.513Z,1007.76
2018-04-23T12:05:02.935Z,1007.72
2018-04-23T12:06:03.384Z,1007.77
2018-04-23T12:07:03.822Z,1007.74
2018-04-23T12:08:04.285Z,1007.77
2018-04-23T12:09:04.711Z,1007.77
2018-04-23T12:10:05.158Z,1007.82
2018-04-23T12:11:05.675Z,1007.76
2018-04-23T12:12:06.050Z,1007.77
2018-04-23T12:13:06.493Z,1007.82
2018-04-23T12:14:06.949Z,1007.80
2018-04-23T12:15:07.388Z,1007.93
2018-04-23T12:16:07.887Z,1007.81
2018-04-23T12:17:08.277Z,1007.85
2018-04-23T12:18:08.731Z,1007.76
2018-04-23T12:19:09.173Z,1007.78
2018-04-23T12:20:09.618Z,1007.73
2018-04-23T12:21:10.069Z,1007.78
2018-04-23T12:22:10.500Z,1007.73
2018-04-23T12:23:10.957Z,1007.77
2018-04-23T12:24:11.396Z,1007.85
2018-04-23T12:25:11.844Z,1007.84
2018-04-23T12:26:12.299Z,1007.83
2018-04-23T12:27:12.848Z,1007.84
2018-04-23T12:28:13.168Z,1007.80
2018-04-23T12:29:13.663Z,1007.83
2018-04-23T12:30:14.083Z,1007.75
2018-04-23T12:31:14.504Z,1007.75
2018-04-23T12:32:14.952Z,1007.74